createdAt,value
2022-10-22T00:01:28.592Z,12.97
2022-10-22T00:03:30.696Z,12.98
2022-10-22T00:05:32.575Z,12.88
2022-10-22T00:07:34.763Z,12.90
2022-10-22T00:09:36.649Z,12.89
2022-10-22T00:11:39.136Z,12.92
2022-10-22T00:13:41.695Z,12.83
2022-10-22T00:15:43.656Z,12.86
2022-10-22T00:17:45.610Z,12.85
2022-10-22T00:19:47.573Z,12.88
2022-10-22T00:21:49.709Z,12.90
2022-10-22T00:23:51.655Z,12.86
2022-10-22T00:25:54.093Z,12.80
2022-10-22T00:27:56.162Z,12.85
2022-10-22T00:29:58.048Z,12.85
2022-10-22T00:31:59.976Z,12.86
2022-10-22T00:34:02.586Z,12.89
2022-10-22T00:36:04.752Z,12.95
2022-10-22T00:38:06.524Z,12.91
2022-10-22T00:40:09.499Z,12.89
2022-10-22T00:42:20.496Z,12.72
2022-10-22T00:44:59.450Z,12.66
2022-10-22T00:47:01.517Z,12.70
2022-10-22T00:49:05.110Z,12.69
2022-10-22T00:51:09.460Z,12.74
2022-10-22T00:53:15.581Z,12.73
2022-10-22T00:55:19.102Z,12.76
2022-10-22T00:57:21.435Z,12.83
2022-10-22T00:59:23.439Z,12.84
2022-10-22T01:01:28.952Z,12.80
2022-10-22T01:03:32.328Z,12.79
2022-10-22T01:05:43.172Z,12.77
2022-10-22T01:07:49.597Z,12.81
2022-10-22T01:10:08.531Z,12.74
2022-10-22T01:12:22.430Z,12.73
2022-10-22T01:14:32.822Z,12.67
2022-10-22T01:16:54.186Z,12.56
2022-10-22T01:19:42.832Z,12.53
2022-10-22T01:21:51.301Z,12.59
2022-10-22T01:24:30.928Z,12.57
2022-10-22T01:26:49.947Z,12.52
2022-10-22T01:29:03.048Z,12.53
2022-10-22T01:31:07.579Z,12.58
2022-10-22T01:33:12.440Z,12.60
2022-10-22T01:35:19.780Z,12.58
2022-10-22T01:37:26.286Z,12.59
2022-10-22T01:39:30.960Z,12.65
2022-10-22T01:41:34.189Z,12.65
2022-10-22T01:43:36.127Z,12.59
2022-10-22T01:45:46.740Z,12.57
2022-10-22T01:48:04.162Z,12.54
2022-10-22T01:50:20.206Z,12.57
2022-10-22T01:52:51.653Z,12.49
2022-10-22T01:55:30.580Z,12.54
2022-10-22T01:57:35.806Z,12.58
2022-10-22T02:00:06.558Z,12.60
2022-10-22T02:02:19.980Z,12.59
2022-10-22T02:04:30.785Z,12.58
2022-10-22T02:06:34.231Z,12.56
2022-10-22T02:08:37.281Z,12.56
2022-10-22T02:10:42.887Z,12.54
2022-10-22T02:12:48.756Z,12.58
2022-10-22T02:18:49.821Z,12.52
2022-10-22T02:20:51.930Z,12.55
2022-10-22T02:22:54.320Z,12.60
2022-10-22T02:24:56.983Z,12.66
2022-10-22T02:27:12.229Z,12.63
2022-10-22T02:29:15.774Z,12.66
2022-10-22T02:31:23.718Z,12.62
2022-10-22T02:33:34.741Z,12.60
2022-10-22T02:35:38.907Z,12.60
2022-10-22T02:37:41.839Z,12.60
2022-10-22T02:39:45.092Z,12.60
2022-10-22T02:41:47.231Z,12.63
2022-10-22T02:43:55.045Z,12.57
2022-10-22T02:45:57.109Z,12.60
2022-10-22T02:47:59.003Z,12.63
2022-10-22T02:50:01.061Z,12.61
2022-10-22T02:52:03.114Z,12.61
2022-10-22T02:54:05.208Z,12.64
2022-10-22T02:56:07.691Z,12.66
2022-10-22T02:58:09.599Z,12.60
2022-10-22T03:00:12.416Z,12.59
2022-10-22T03:02:14.359Z,12.60
2022-10-22T03:04:16.256Z,12.61
2022-10-22T03:06:18.179Z,12.63
2022-10-22T03:08:20.403Z,12.66
2022-10-22T03:10:22.428Z,12.68
2022-10-22T03:12:24.292Z,12.68
2022-10-22T03:14:26.230Z,12.71
2022-10-22T03:16:28.153Z,12.68
2022-10-22T03:18:30.488Z,12.69
2022-10-22T03:20:32.432Z,12.68
2022-10-22T03:22:35.752Z,12.64
2022-10-22T03:25:07.639Z,12.58
2022-10-22T03:27:10.681Z,12.64
2022-10-22T03:29:14.728Z,12.66
2022-10-22T03:31:16.827Z,12.66
2022-10-22T03:33:18.773Z,12.64
2022-10-22T03:35:21.269Z,12.62
2022-10-22T03:37:25.526Z,12.60
2022-10-22T03:39:29.722Z,12.58
2022-10-22T03:41:31.896Z,12.56
2022-10-22T03:43:38.142Z,12.52
2022-10-22T03:45:40.448Z,12.50
2022-10-22T03:47:42.512Z,12.50
2022-10-22T03:49:44.540Z,12.50
2022-10-22T03:51:46.314Z,12.49
2022-10-22T03:53:48.246Z,12.49
2022-10-22T03:55:51.017Z,12.46
2022-10-22T03:57:53.133Z,12.40
2022-10-22T03:59:54.964Z,12.35
2022-10-22T04:01:56.765Z,12.38
2022-10-22T04:03:59.226Z,12.37
2022-10-22T04:06:09.521Z,12.32
2022-10-22T04:08:11.436Z,12.34
2022-10-22T04:10:13.348Z,12.31
2022-10-22T04:12:15.237Z,12.27
2022-10-22T04:14:17.187Z,12.29
2022-10-22T04:16:30.983Z,12.22
2022-10-22T04:18:32.965Z,12.24
2022-10-22T04:20:34.996Z,12.19
2022-10-22T04:22:37.198Z,12.21
2022-10-22T04:24:39.154Z,12.22
2022-10-22T04:26:41.466Z,12.21
2022-10-22T04:32:42.901Z,12.19
2022-10-22T04:34:44.868Z,12.13
2022-10-22T04:36:46.840Z,12.19
2022-10-22T04:38:53.653Z,12.11
2022-10-22T04:40:55.496Z,12.09
2022-10-22T04:42:57.325Z,12.09
2022-10-22T04:44:59.369Z,12.07
2022-10-22T04:47:01.496Z,12.09
2022-10-22T04:49:04.798Z,12.11
2022-10-22T04:51:09.099Z,12.09
2022-10-22T04:53:11.551Z,12.06
2022-10-22T04:55:13.359Z,12.03
2022-10-22T04:57:15.231Z,12.04
2022-10-22T04:59:17.089Z,12.01
2022-10-22T05:01:20.858Z,12.02
2022-10-22T05:03:25.629Z,12.10
2022-10-22T05:05:27.541Z,12.10
2022-10-22T05:07:29.359Z,11.99
2022-10-22T05:09:31.738Z,12.18
2022-10-22T05:11:37.059Z,12.14
2022-10-22T05:13:39.008Z,12.18
2022-10-22T05:15:41.150Z,12.18
2022-10-22T05:17:43.447Z,12.20
2022-10-22T05:19:45.535Z,12.18
2022-10-22T05:21:47.434Z,12.14
2022-10-22T05:23:50.876Z,12.15
2022-10-22T05:25:52.631Z,12.14
2022-10-22T05:27:57.212Z,12.15
2022-10-22T05:30:01.734Z,12.16
2022-10-22T05:32:03.697Z,12.16
2022-10-22T05:34:05.453Z,12.18
2022-10-22T05:36:08.998Z,12.20
2022-10-22T05:38:11.480Z,12.25
2022-10-22T05:40:26.625Z,12.32
2022-10-22T05:42:33.533Z,12.30
2022-10-22T05:44:35.587Z,12.35
2022-10-22T05:46:37.589Z,12.42
2022-10-22T05:48:39.798Z,12.52
2022-10-22T05:50:42.212Z,12.63
2022-10-22T05:52:44.089Z,12.69
2022-10-22T05:54:46.055Z,12.73
2022-10-22T05:56:48.418Z,12.85
2022-10-22T05:58:51.272Z,12.93
2022-10-22T06:00:53.179Z,13.05
2022-10-22T06:02:55.273Z,13.15
2022-10-22T06:04:57.326Z,13.27
2022-10-22T06:07:02.526Z,13.41
2022-10-22T06:09:27.465Z,13.54
2022-10-22T06:11:32.523Z,13.69
2022-10-22T06:13:37.029Z,13.84
2022-10-22T06:15:38.949Z,13.97
2022-10-22T06:17:40.736Z,14.13
2022-10-22T06:19:42.886Z,14.30
2022-10-22T06:21:45.482Z,14.44
2022-10-22T06:23:49.634Z,14.56
2022-10-22T06:26:00.982Z,14.72
2022-10-22T06:28:02.774Z,14.84
2022-10-22T06:30:04.998Z,14.97
2022-10-22T06:32:06.735Z,15.09
2022-10-22T06:34:12.201Z,15.21
2022-10-22T06:36:20.171Z,15.33
2022-10-22T06:38:22.299Z,15.46
2022-10-22T06:40:24.930Z,15.58
2022-10-22T06:42:28.760Z,15.74
2022-10-22T06:44:30.915Z,15.95
2022-10-22T06:46:32.920Z,16.11
2022-10-22T06:48:37.390Z,16.25
2022-10-22T06:50:39.534Z,16.43
2022-10-22T06:52:41.951Z,16.58
2022-10-22T06:54:43.908Z,16.75
2022-10-22T06:56:46.109Z,16.89
2022-10-22T06:58:49.055Z,17.05
2022-10-22T07:01:01.008Z,17.15
2022-10-22T07:03:02.911Z,17.30
2022-10-22T07:05:05.174Z,17.40
2022-10-22T07:07:07.670Z,17.49
2022-10-22T07:09:09.675Z,17.64
2022-10-22T07:11:20.792Z,17.77
2022-10-22T07:13:23.255Z,17.91
2022-10-22T07:15:25.475Z,18.03
2022-10-22T07:17:27.522Z,18.16
2022-10-22T07:19:29.652Z,18.24
2022-10-22T07:21:32.382Z,18.35
2022-10-22T07:23:34.686Z,18.41
2022-10-22T07:25:36.804Z,18.53
2022-10-22T07:27:39.275Z,18.66
2022-10-22T07:29:44.266Z,18.75
2022-10-22T07:31:46.323Z,18.83
2022-10-22T07:33:48.252Z,18.92
2022-10-22T07:35:50.282Z,18.99
2022-10-22T07:37:52.599Z,19.04
2022-10-22T07:39:54.759Z,19.12
2022-10-22T07:41:56.968Z,19.13
2022-10-22T07:43:59.014Z,19.15
2022-10-22T07:46:02.902Z,19.12
2022-10-22T07:48:05.370Z,19.10
2022-10-22T07:50:08.161Z,19.10
2022-10-22T07:52:10.298Z,19.09
2022-10-22T07:54:12.641Z,19.12
2022-10-22T07:56:14.715Z,19.13
2022-10-22T07:58:20.567Z,19.14
2022-10-22T08:00:25.280Z,19.22
2022-10-22T08:02:29.936Z,19.29
2022-10-22T08:04:32.114Z,19.30
2022-10-22T08:06:35.019Z,19.29
2022-10-22T08:08:37.172Z,19.31
2022-10-22T08:10:41.322Z,19.31
2022-10-22T08:12:43.859Z,19.25
2022-10-22T08:14:46.114Z,19.23
2022-10-22T08:16:48.303Z,19.23
2022-10-22T08:18:51.271Z,19.17
2022-10-22T08:20:54.054Z,19.14
2022-10-22T08:22:56.333Z,19.12
2022-10-22T08:24:59.243Z,19.09
2022-10-22T08:27:03.895Z,19.08
2022-10-22T08:29:06.011Z,19.12
2022-10-22T08:31:08.611Z,19.12
2022-10-22T08:33:10.930Z,19.17
2022-10-22T08:35:16.793Z,19.20
2022-10-22T08:37:19.611Z,19.25
2022-10-22T08:39:22.500Z,19.27
2022-10-22T08:41:25.399Z,19.31
2022-10-22T08:43:49.199Z,19.36
2022-10-22T08:46:16.374Z,19.37
2022-10-22T08:48:46.015Z,19.40
2022-10-22T08:50:50.287Z,19.47
2022-10-22T08:52:56.806Z,19.52
2022-10-22T08:55:04.552Z,19.59
2022-10-22T08:57:09.748Z,19.62
2022-10-22T08:59:27.893Z,19.72
2022-10-22T09:01:35.722Z,19.79
2022-10-22T09:03:49.872Z,19.82
2022-10-22T09:07:55.765Z,19.92
2022-10-22T09:10:00.690Z,19.97
2022-10-22T09:12:05.185Z,20.07
2022-10-22T09:14:09.630Z,20.10
2022-10-22T09:16:19.465Z,20.16
2022-10-22T09:18:30.312Z,20.21
2022-10-22T09:20:54.976Z,20.26
2022-10-22T09:23:12.167Z,20.34
2022-10-22T09:25:24.328Z,20.39
2022-10-22T09:27:29.150Z,20.38
2022-10-22T09:29:35.041Z,20.40
2022-10-22T09:31:37.122Z,20.46
2022-10-22T09:33:40.186Z,20.49
2022-10-22T09:36:03.547Z,20.50
2022-10-22T09:38:08.923Z,20.57
2022-10-22T09:40:15.205Z,20.65
2022-10-22T09:43:20.606Z,20.69
2022-10-22T09:45:26.289Z,20.77
2022-10-22T09:47:43.695Z,20.86
2022-10-22T09:50:31.497Z,20.98
2022-10-22T09:52:34.699Z,21.09
2022-10-22T09:54:42.617Z,21.14
2022-10-22T09:56:51.597Z,21.21
2022-10-22T09:58:56.856Z,21.26
2022-10-22T10:01:00.975Z,21.30
2022-10-22T10:03:03.607Z,21.34
2022-10-22T10:05:07.122Z,21.39
2022-10-22T10:07:21.827Z,21.45
2022-10-22T10:09:26.317Z,21.49
2022-10-22T10:11:35.259Z,21.53
2022-10-22T10:13:46.888Z,21.53
2022-10-22T10:16:17.522Z,21.56
2022-10-22T10:18:43.726Z,21.63
2022-10-22T10:23:09.732Z,21.75
2022-10-22T10:25:26.679Z,21.74
2022-10-22T10:27:40.314Z,21.80
2022-10-22T10:30:00.402Z,21.87
2022-10-22T10:32:21.126Z,21.89
2022-10-22T10:34:37.601Z,21.92
2022-10-22T10:37:03.756Z,21.92
2022-10-22T10:39:24.439Z,21.87
2022-10-22T10:41:32.591Z,21.88
2022-10-22T10:43:59.221Z,21.94
2022-10-22T10:46:38.401Z,21.99
2022-10-22T10:48:49.688Z,22.02
2022-10-22T10:51:22.312Z,21.95
2022-10-22T10:53:43.090Z,21.92
2022-10-22T10:55:57.127Z,21.88
2022-10-22T10:57:59.952Z,21.85
2022-10-22T11:00:11.061Z,21.81
2022-10-22T11:02:31.157Z,21.80
2022-10-22T11:05:06.777Z,21.78
2022-10-22T11:07:30.056Z,21.81
2022-10-22T11:09:53.693Z,21.85
2022-10-22T11:12:04.402Z,21.87
2022-10-22T11:14:20.158Z,21.85
2022-10-22T11:16:31.549Z,21.84
2022-10-22T11:18:48.553Z,21.82
2022-10-22T11:20:54.404Z,21.82
2022-10-22T11:23:21.883Z,21.80
2022-10-22T11:25:30.895Z,21.77
2022-10-22T11:27:45.037Z,21.78
2022-10-22T11:29:52.491Z,21.77
2022-10-22T11:31:57.147Z,21.79
2022-10-22T11:34:32.569Z,21.79
2022-10-22T11:36:36.979Z,21.79
2022-10-22T11:38:39.063Z,21.74
2022-10-22T11:40:52.036Z,21.77
2022-10-22T11:42:57.544Z,21.74
2022-10-22T11:45:04.359Z,21.69
2022-10-22T11:47:18.357Z,21.67
2022-10-22T11:49:28.682Z,21.65
2022-10-22T11:51:35.555Z,21.66
2022-10-22T11:53:42.171Z,21.66
2022-10-22T11:55:50.640Z,21.63
2022-10-22T11:57:57.196Z,21.63
2022-10-22T12:00:00.975Z,21.61
2022-10-22T12:02:03.137Z,21.60
2022-10-22T12:04:22.810Z,21.55
2022-10-22T12:06:26.893Z,21.55
2022-10-22T12:08:29.325Z,21.54
2022-10-22T12:10:50.972Z,21.48
2022-10-22T12:12:58.749Z,21.49
2022-10-22T12:15:01.341Z,21.50
2022-10-22T12:17:08.086Z,21.51
2022-10-22T12:19:15.690Z,21.49
2022-10-22T12:21:18.074Z,21.49
2022-10-22T12:23:25.098Z,21.49
2022-10-22T12:25:35.718Z,21.47
2022-10-22T12:27:41.031Z,21.45
2022-10-22T12:29:43.315Z,21.46
2022-10-22T12:31:47.793Z,21.44
2022-10-22T12:33:59.389Z,21.44
2022-10-22T12:36:04.384Z,21.47
2022-10-22T12:38:14.965Z,21.42
2022-10-22T12:40:18.421Z,21.44
2022-10-22T12:42:22.161Z,21.43
2022-10-22T12:44:24.122Z,21.43
2022-10-22T12:46:28.773Z,21.44
2022-10-22T12:48:36.353Z,21.45
2022-10-22T12:50:46.220Z,21.42
2022-10-22T12:52:49.109Z,21.43
2022-10-22T12:54:52.753Z,21.44
2022-10-22T12:56:56.543Z,21.44
2022-10-22T12:59:04.464Z,21.47
2022-10-22T13:01:07.326Z,21.46
2022-10-22T13:03:27.900Z,21.44
2022-10-22T13:05:39.193Z,21.42
2022-10-22T13:07:52.582Z,21.42
2022-10-22T13:09:59.980Z,21.41
2022-10-22T13:12:06.960Z,21.38
2022-10-22T13:14:21.661Z,21.41
2022-10-22T13:16:27.937Z,21.43
2022-10-22T13:18:33.686Z,21.41
2022-10-22T13:20:37.509Z,21.47
2022-10-22T13:22:42.235Z,21.42
2022-10-22T13:24:51.067Z,21.40
2022-10-22T13:26:55.219Z,21.43
2022-10-22T13:28:58.519Z,21.42
2022-10-22T13:31:08.492Z,21.40
2022-10-22T13:33:35.457Z,21.35
2022-10-22T13:35:38.654Z,21.35
2022-10-22T13:37:41.070Z,21.38
2022-10-22T13:39:43.216Z,21.36
2022-10-22T13:41:45.906Z,21.35
2022-10-22T13:43:47.991Z,21.34
2022-10-22T13:45:55.250Z,21.32
2022-10-22T13:47:57.351Z,21.33
2022-10-22T13:50:01.737Z,21.31
2022-10-22T13:52:04.199Z,21.31
2022-10-22T13:54:14.766Z,21.25
2022-10-22T13:56:18.336Z,21.23
2022-10-22T13:58:25.320Z,21.21
2022-10-22T14:00:28.027Z,21.20
2022-10-22T14:02:30.182Z,21.14
2022-10-22T14:04:41.281Z,21.13
2022-10-22T14:06:45.651Z,21.09
2022-10-22T14:08:51.797Z,21.03
2022-10-22T14:10:54.482Z,20.98
2022-10-22T14:12:56.564Z,20.97
2022-10-22T14:14:58.605Z,20.99
2022-10-22T14:17:01.033Z,20.96
2022-10-22T14:19:04.017Z,20.94
2022-10-22T14:21:07.741Z,20.94
2022-10-22T14:23:20.393Z,20.87
2022-10-22T14:25:25.268Z,20.91
2022-10-22T14:27:27.334Z,20.85
2022-10-22T14:29:29.366Z,20.81
2022-10-22T14:31:31.949Z,20.87
2022-10-22T14:33:34.058Z,20.87
2022-10-22T14:35:36.203Z,20.81
2022-10-22T14:37:38.307Z,20.79
2022-10-22T14:39:40.350Z,20.77
2022-10-22T14:41:43.192Z,20.78
2022-10-22T14:43:45.972Z,20.70
2022-10-22T14:45:48.455Z,20.73
2022-10-22T14:47:57.551Z,20.79
2022-10-22T14:50:02.493Z,20.76
2022-10-22T14:52:04.667Z,20.75
2022-10-22T14:54:06.766Z,20.76
2022-10-22T14:56:18.375Z,20.71
2022-10-22T14:58:20.300Z,20.71
2022-10-22T15:00:22.361Z,20.67
2022-10-22T15:02:27.577Z,20.66
2022-10-22T15:04:30.706Z,20.63
2022-10-22T15:06:32.947Z,20.61
2022-10-22T15:08:35.468Z,20.60
2022-10-22T15:10:37.873Z,20.55
2022-10-22T15:12:40.206Z,20.52
2022-10-22T15:14:42.505Z,20.47
2022-10-22T15:16:44.653Z,20.44
2022-10-22T15:18:46.687Z,20.41
2022-10-22T15:20:59.148Z,20.40
2022-10-22T15:23:01.174Z,20.41
2022-10-22T15:25:07.529Z,20.39
2022-10-22T15:27:09.739Z,20.34
2022-10-22T15:29:11.718Z,20.33
2022-10-22T15:31:14.901Z,20.31
2022-10-22T15:33:16.882Z,20.23
2022-10-22T15:35:18.932Z,20.23
2022-10-22T15:37:21.649Z,20.23
2022-10-22T15:39:24.835Z,20.22
2022-10-22T15:41:26.922Z,20.20
2022-10-22T15:43:28.933Z,20.17
2022-10-22T15:45:31.072Z,20.15
2022-10-22T15:47:33.705Z,20.16
2022-10-22T15:49:37.811Z,20.16
2022-10-22T15:51:40.678Z,20.11
2022-10-22T15:53:42.942Z,20.08
2022-10-22T15:56:35.431Z,19.99
2022-10-22T15:58:37.578Z,20.00
2022-10-22T16:00:39.555Z,19.98
2022-10-22T16:02:41.599Z,19.96
2022-10-22T16:04:43.599Z,19.95
2022-10-22T16:06:48.288Z,19.93
2022-10-22T16:08:50.463Z,19.93
2022-10-22T16:10:53.814Z,19.90
2022-10-22T16:12:57.936Z,19.87
2022-10-22T16:14:59.853Z,19.83
2022-10-22T16:17:02.058Z,19.82
2022-10-22T16:19:04.327Z,19.83
2022-10-22T16:33:06.988Z,19.77
2022-10-22T16:35:09.498Z,19.78
2022-10-22T16:37:11.856Z,19.83
2022-10-22T16:39:14.082Z,19.90
2022-10-22T16:41:19.057Z,19.88
2022-10-22T16:43:21.059Z,19.90
2022-10-22T16:45:23.058Z,19.92
2022-10-22T16:47:25.248Z,19.96
2022-10-22T16:49:27.392Z,20.01
2022-10-22T16:51:29.421Z,20.04
2022-10-22T16:53:31.597Z,20.09
2022-10-22T16:55:37.673Z,20.10
2022-10-22T16:57:39.776Z,20.09
2022-10-22T16:59:42.069Z,20.07
2022-10-22T17:01:44.144Z,20.07
2022-10-22T17:03:46.770Z,20.04
2022-10-22T17:05:48.900Z,20.04
2022-10-22T17:07:51.256Z,19.98
2022-10-22T17:09:53.603Z,19.96
2022-10-22T17:11:56.012Z,19.94
2022-10-22T17:13:58.052Z,19.98
2022-10-22T17:16:05.164Z,19.96
2022-10-22T17:18:07.481Z,19.92
2022-10-22T17:20:10.789Z,19.92
2022-10-22T17:22:16.150Z,19.96
2022-10-22T17:24:21.179Z,19.94
2022-10-22T17:26:24.772Z,19.89
2022-10-22T17:28:27.950Z,19.88
2022-10-22T17:30:30.608Z,19.92
2022-10-22T17:32:37.286Z,19.94
2022-10-22T17:34:41.896Z,19.92
2022-10-22T17:36:45.936Z,19.87
2022-10-22T17:38:50.772Z,19.86
2022-10-22T17:40:53.338Z,19.82
2022-10-22T17:42:55.415Z,19.82
2022-10-22T17:44:58.134Z,19.76
2022-10-22T17:47:01.288Z,19.76
2022-10-22T17:49:12.417Z,19.75
2022-10-22T17:51:14.813Z,19.71
2022-10-22T17:53:17.112Z,19.72
2022-10-22T17:55:19.292Z,19.73
2022-10-22T17:57:21.295Z,19.71
2022-10-22T17:59:23.117Z,19.75
2022-10-22T18:01:25.456Z,19.74
2022-10-22T18:03:28.064Z,19.75
2022-10-22T18:05:30.368Z,19.73
2022-10-22T18:07:32.417Z,19.70
2022-10-22T18:09:34.925Z,19.73
2022-10-22T18:11:37.883Z,19.71
2022-10-22T18:13:40.099Z,19.67
2022-10-22T18:15:42.300Z,19.64
2022-10-22T18:17:47.259Z,19.59
2022-10-22T18:19:49.675Z,19.62
2022-10-22T18:21:52.082Z,19.60
2022-10-22T18:23:54.438Z,19.60
2022-10-22T18:25:56.497Z,19.58
2022-10-22T18:27:58.528Z,19.55
2022-10-22T18:30:00.593Z,19.62
2022-10-22T18:32:08.337Z,19.69
2022-10-22T18:34:16.587Z,19.75
2022-10-22T18:36:24.016Z,19.80
2022-10-22T18:38:26.181Z,19.85
2022-10-22T18:40:30.493Z,19.88
2022-10-22T18:42:37.780Z,19.90
2022-10-22T18:44:41.915Z,19.90
2022-10-22T18:46:44.090Z,19.90
2022-10-22T18:48:47.593Z,19.92
2022-10-22T18:50:59.531Z,19.90
2022-10-22T18:53:01.418Z,19.86
2022-10-22T18:55:03.679Z,19.78
2022-10-22T18:57:08.207Z,19.70
2022-10-22T18:59:21.954Z,19.68
2022-10-22T19:01:27.902Z,19.71
2022-10-22T19:03:29.663Z,19.68
2022-10-22T19:05:31.943Z,19.64
2022-10-22T19:07:36.487Z,19.64
2022-10-22T19:09:39.995Z,19.63
2022-10-22T19:11:44.690Z,19.66
2022-10-22T19:13:46.565Z,19.63
2022-10-22T19:15:48.437Z,19.60
2022-10-22T19:17:50.331Z,19.59
2022-10-22T19:19:52.283Z,19.59
2022-10-22T19:21:56.588Z,19.56
2022-10-22T19:24:00.227Z,19.54
2022-10-22T19:26:10.299Z,19.54
2022-10-22T19:28:12.143Z,19.51
2022-10-22T19:30:14.547Z,19.48
2022-10-22T19:32:19.843Z,19.45
2022-10-22T19:34:22.011Z,19.46
2022-10-22T19:36:25.415Z,19.41
2022-10-22T19:38:29.829Z,19.40
2022-10-22T19:40:31.555Z,19.38
2022-10-22T19:42:33.679Z,19.35
2022-10-22T19:44:35.800Z,19.34
2022-10-22T19:46:38.120Z,19.32
2022-10-22T19:48:40.425Z,19.27
2022-10-22T19:50:42.767Z,19.26
2022-10-22T19:52:44.711Z,19.23
2022-10-22T19:54:47.016Z,19.19
2022-10-22T19:56:49.036Z,19.17
2022-10-22T19:58:50.880Z,19.14
2022-10-22T20:00:53.046Z,19.07
2022-10-22T20:02:58.604Z,19.00
2022-10-22T20:05:00.503Z,18.99
2022-10-22T20:07:02.403Z,18.98
2022-10-22T20:09:04.518Z,18.97
2022-10-22T20:11:10.903Z,18.96
2022-10-22T20:13:12.766Z,18.97
2022-10-22T20:15:14.792Z,18.98
2022-10-22T20:17:16.846Z,18.97
2022-10-22T20:19:19.325Z,18.95
2022-10-22T20:21:22.164Z,18.94
2022-10-22T20:23:24.558Z,18.91
2022-10-22T20:25:26.843Z,18.88
2022-10-22T20:27:29.072Z,18.87
2022-10-22T20:29:31.047Z,18.85
2022-10-22T20:31:33.296Z,18.83
2022-10-22T20:33:35.422Z,18.83
2022-10-22T20:35:37.615Z,18.80
2022-10-22T20:37:39.616Z,18.81
2022-10-22T20:40:51.275Z,18.74
2022-10-22T20:42:53.525Z,18.75
2022-10-22T20:44:55.508Z,18.74
2022-10-22T20:49:05.536Z,18.67
2022-10-22T20:51:07.629Z,18.61
2022-10-22T20:53:13.368Z,18.61
2022-10-22T20:57:18.986Z,18.63
2022-10-22T20:59:21.451Z,18.54
2022-10-22T21:01:24.372Z,18.55
2022-10-22T21:11:25.997Z,18.42
2022-10-22T21:13:28.154Z,18.39
2022-10-22T21:15:30.241Z,18.37
2022-10-22T21:17:33.139Z,18.32
2022-10-22T21:19:35.148Z,18.30
2022-10-22T21:21:37.094Z,18.32
2022-10-22T21:23:40.225Z,18.31
2022-10-22T21:25:52.489Z,18.33
2022-10-22T21:27:54.641Z,18.31
2022-10-22T21:29:56.743Z,18.28
2022-10-22T21:31:59.346Z,18.28
2022-10-22T21:34:01.504Z,18.27
2022-10-22T21:36:05.524Z,18.26
2022-10-22T21:38:45.567Z,18.17
2022-10-22T21:40:48.749Z,18.22
2022-10-22T21:42:51.279Z,18.21
2022-10-22T21:44:53.572Z,18.22
2022-10-22T21:46:55.953Z,18.18
2022-10-22T21:49:02.207Z,18.16
2022-10-22T21:51:16.132Z,18.06
2022-10-22T21:53:18.300Z,18.12
2022-10-22T21:55:20.233Z,18.06
2022-10-22T21:58:46.651Z,17.96
2022-10-22T22:00:54.582Z,17.96
2022-10-22T22:02:56.690Z,17.95
2022-10-22T22:04:59.244Z,17.95
2022-10-22T22:07:01.530Z,17.94
2022-10-22T22:09:05.506Z,17.96
2022-10-22T22:11:14.235Z,17.96
2022-10-22T22:13:17.408Z,17.94
2022-10-22T22:15:20.701Z,17.93
2022-10-22T22:17:22.927Z,17.89
2022-10-22T22:19:25.149Z,17.84
2022-10-22T22:21:27.632Z,17.79
2022-10-22T22:23:30.245Z,17.67
2022-10-22T22:25:35.397Z,17.59
2022-10-22T22:27:37.565Z,17.59
2022-10-22T22:29:39.971Z,17.57
2022-10-22T22:31:43.168Z,17.57
2022-10-22T22:33:45.797Z,17.50
2022-10-22T22:35:47.923Z,17.50
2022-10-22T22:37:52.254Z,17.53
2022-10-22T22:39:54.803Z,17.53
2022-10-22T22:41:56.964Z,17.54
2022-10-22T22:43:59.621Z,17.53
2022-10-22T22:46:08.879Z,17.52
2022-10-22T22:48:10.991Z,17.50
2022-10-22T22:50:13.007Z,17.43
2022-10-22T22:52:15.301Z,17.39
2022-10-22T22:54:17.440Z,17.34
2022-10-22T22:56:24.858Z,17.32
2022-10-22T22:58:27.899Z,17.33
2022-10-22T23:04:23.868Z,17.23
2022-10-22T23:06:28.373Z,17.21
2022-10-22T23:08:30.716Z,17.25
2022-10-22T23:10:32.950Z,17.24
2022-10-22T23:12:34.966Z,17.20
2022-10-22T23:14:36.873Z,17.23
2022-10-22T23:16:42.208Z,17.23
2022-10-22T23:18:46.083Z,17.27
2022-10-22T23:20:48.103Z,17.22
2022-10-22T23:22:50.378Z,17.19
2022-10-22T23:24:52.456Z,17.15
2022-10-22T23:26:55.935Z,17.10
2022-10-22T23:29:20.906Z,16.97
2022-10-22T23:31:23.121Z,17.05
2022-10-22T23:33:25.163Z,17.07
2022-10-22T23:35:27.047Z,17.10
2022-10-22T23:37:29.226Z,17.12
2022-10-22T23:39:31.372Z,17.13
2022-10-22T23:41:33.774Z,17.12
2022-10-22T23:43:36.587Z,17.16
2022-10-22T23:45:38.779Z,17.13
2022-10-22T23:47:41.105Z,17.10
2022-10-22T23:49:43.535Z,17.15
2022-10-22T23:51:45.656Z,17.14
2022-10-22T23:53:55.951Z,17.13
2022-10-22T23:55:58.244Z,17.09
2022-10-22T23:58:00.723Z,17.12
